Time;durP1;ratioP1;P1;durP2;ratioP2;P2;SDS_P1;SDS_P2;PMS_P1;PMS_P2;Temp;Humidity;BMP_temperature;BMP_pressure;BME280_temperature;BME280_humidity;BME280_pressure;Samples;Min_cycle;Max_cycle;Signal;HPM_P1;HPM_P2
2022/01/01 00:01:16;;;;;;;;;;;;;;;21.33;47.65;100539.25;5093229;28;19917;-75
2022/01/01 00:03:42;;;;;;;;;;;;;;;21.13;48.30;100537.94;5093255;28;19916;-75
2022/01/01 00:06:07;;;;;;;;;;;;;;;21.23;48.09;100546.31;5093164;28;19916;-75
2022/01/01 00:08:33;;;;;;;;;;;;;;;21.22;47.92;100550.28;5093209;28;19923;-74
2022/01/01 00:10:58;;;;;;;;;;;;;;;21.25;47.81;100559.84;5093163;28;19916;-74
2022/01/01 00:13:23;;;;;;;;;;;;;;;21.31;47.63;100541.59;5093139;28;19920;-74
2022/01/01 00:15:49;;;;;;;;;;;;;;;21.32;47.77;100544.03;5093106;28;20003;-75
2022/01/01 00:18:16;;;;;;;;;;;;;;;21.38;47.61;100536.06;5090617;28;19920;-74
2022/01/01 00:20:42;;;;;;;;;;;;;;;21.22;47.92;100516.94;5093082;28;20001;-75
2022/01/01 00:23:07;;;;;;;;;;;;;;;21.32;47.59;100504.31;5093010;28;20487;-74
2022/01/01 00:25:33;;;;;;;;;;;;;;;21.27;47.86;100502.69;5093031;28;19923;-75
2022/01/01 00:27:58;;;;;;;;;;;;;;;21.22;47.80;100482.78;5092810;28;20382;-75
2022/01/01 00:30:23;;;;;;;;;;;;;;;21.29;47.61;100491.97;5092973;28;20011;-74
2022/01/01 00:32:49;;;;;;;;;;;;;;;21.24;47.58;100483.22;5093002;28;20389;-75
2022/01/01 00:35:14;;;;;;;;;;;;;;;21.10;48.11;100497.06;5091546;28;19959;-75
2022/01/01 00:37:40;;;;;;;;;;;;;;;21.15;47.90;100499.44;5092851;28;19916;-75
2022/01/01 00:40:06;;;;;;;;;;;;;;;21.19;47.81;100505.81;5092874;28;19923;-75
2022/01/01 00:42:31;;;;;;;;;;;;;;;21.29;47.67;100491.19;5092785;28;19920;-75
2022/01/01 00:44:56;;;;;;;;;;;;;;;21.20;47.64;100488.75;5092859;28;19924;-74
2022/01/01 00:47:22;;;;;;;;;;;;;;;21.12;47.75;100478.81;5092805;28;20010;-75
2022/01/01 00:49:48;;;;;;;;;;;;;;;21.18;47.64;100471.69;5092791;28;20294;-75
2022/01/01 00:52:13;;;;;;;;;;;;;;;21.30;47.31;100473.31;5092724;28;19916;-74
2022/01/01 00:54:39;;;;;;;;;;;;;;;21.30;47.06;100474.13;5092722;28;19916;-75
2022/01/01 00:57:04;;;;;;;;;;;;;;;21.28;47.25;100468.16;5092698;28;19923;-74
2022/01/01 00:59:30;;;;;;;;;;;;;;;21.27;47.01;100458.25;5092601;28;20012;-75
2022/01/01 01:01:57;;;;;;;;;;;;;;;21.20;47.27;100441.53;5092602;28;20279;-75
2022/01/01 01:04:22;;;;;;;;;;;;;;;21.17;46.96;100442.31;5093008;28;19916;-74
2022/01/01 01:06:48;;;;;;;;;;;;;;;21.41;46.56;100432.47;5096541;28;20263;-75
2022/01/01 01:09:13;;;;;;;;;;;;;;;21.37;46.61;100431.66;5096435;28;20011;-74
2022/01/01 01:11:44;;;;;;;;;;;;;;;21.29;46.96;100399.50;5096360;28;20022;-75
2022/01/01 01:14:18;;;;;;;;;;;;;;;21.20;47.04;100404.59;5096614;28;19974;-74
2022/01/01 01:16:43;;;;;;;;;;;;;;;21.29;46.79;100408.63;5096571;28;19916;-75
2022/01/01 01:19:09;;;;;;;;;;;;;;;21.13;47.09;100396.25;5094693;28;20310;-75
2022/01/01 01:21:34;;;;;;;;;;;;;;;21.15;47.15;100372.44;5096150;28;19924;-75
2022/01/01 01:24:01;;;;;;;;;;;;;;;21.36;46.43;100377.28;5096071;28;19927;-75
2022/01/01 01:26:28;;;;;;;;;;;;;;;21.34;46.36;100371.31;5096079;28;20006;-75
2022/01/01 01:28:54;;;;;;;;;;;;;;;20.95;47.19;100366.44;5096069;28;19916;-75
2022/01/01 01:31:20;;;;;;;;;;;;;;;21.18;46.92;100370.88;5096103;28;19931;-75
2022/01/01 01:33:46;;;;;;;;;;;;;;;21.15;46.84;100385.53;5095953;28;19916;-75
2022/01/01 01:36:11;;;;;;;;;;;;;;;21.03;47.01;100398.63;5095980;28;19920;-75
2022/01/01 01:38:37;;;;;;;;;;;;;;;21.12;46.77;100392.69;5095861;28;19923;-75
2022/01/01 01:41:04;;;;;;;;;;;;;;;21.20;46.54;100366.50;5095960;28;19963;-75
2022/01/01 01:43:29;;;;;;;;;;;;;;;21.28;46.38;100381.22;5095830;28;19919;-75
2022/01/01 01:45:55;;;;;;;;;;;;;;;21.12;46.50;100347.44;5095743;28;19959;-75
2022/01/01 01:48:20;;;;;;;;;;;;;;;21.12;46.47;100351.00;5095712;28;19927;-75
2022/01/01 01:50:46;;;;;;;;;;;;;;;21.23;46.04;100331.56;5095590;28;19920;-75
2022/01/01 01:53:12;;;;;;;;;;;;;;;21.05;46.46;100326.78;5095568;28;19923;-75
2022/01/01 01:55:37;;;;;;;;;;;;;;;21.08;46.26;100321.63;5095498;28;19917;-75
2022/01/01 01:58:03;;;;;;;;;;;;;;;21.28;45.75;100293.13;5095485;28;19923;-75
2022/01/01 02:03:00;;;;;;;;;;;;;;;21.20;45.61;100280.38;5127095;27;20428;-75
2022/01/01 02:05:26;;;;;;;;;;;;;;;21.40;45.25;100283.59;5095389;28;19917;-75
2022/01/01 02:07:52;;;;;;;;;;;;;;;21.18;45.51;100306.97;5095293;28;20522;-75
2022/01/01 02:10:17;;;;;;;;;;;;;;;21.34;45.34;100301.84;5095279;28;19923;-75
2022/01/01 02:12:48;;;;;;;;;;;;;;;21.15;45.53;100277.19;5095178;28;20388;-75
2022/01/01 02:18:18;;;;;;;;;;;;;;;20.84;46.22;100307.31;5094921;28;19927;-75
2022/01/01 02:20:49;;;;;;;;;;;;;;;21.04;45.64;100305.75;5095096;28;19916;-75
2022/01/01 02:23:15;;;;;;;;;;;;;;;21.15;45.29;100299.41;5095068;28;19969;-75
2022/01/01 02:25:41;;;;;;;;;;;;;;;20.94;45.62;100294.66;5095027;28;20343;-74
2022/01/01 02:28:07;;;;;;;;;;;;;;;21.08;45.50;100277.97;5127806;27;19916;-75
2022/01/01 02:30:32;;;;;;;;;;;;;;;20.97;45.60;100274.41;5094906;28;19916;-75
2022/01/01 02:32:58;;;;;;;;;;;;;;;21.03;45.39;100276.41;5095090;28;19916;-75
2022/01/01 02:35:24;;;;;;;;;;;;;;;21.14;45.18;100264.50;5094765;28;19923;-75
2022/01/01 02:37:49;;;;;;;;;;;;;;;21.13;44.91;100247.03;5093415;28;19916;-74
2022/01/01 02:40:15;;;;;;;;;;;;;;;21.08;44.94;100277.97;5127532;27;19916;-75
2022/01/01 02:42:42;;;;;;;;;;;;;;;21.04;44.87;100271.63;5094639;28;19924;-75
2022/01/01 02:45:10;;;;;;;;;;;;;;;21.00;44.87;100263.28;5094595;28;19974;-75
2022/01/01 02:47:36;;;;;;;;;;;;;;;20.91;45.21;100249.00;5093305;28;19965;-75
2022/01/01 02:50:02;;;;;;;;;;;;;;;21.00;44.75;100243.84;5094759;28;20321;-75
2022/01/01 02:52:28;;;;;;;;;;;;;;;20.73;45.51;100239.84;5094174;28;19927;-75
2022/01/01 02:54:53;;;;;;;;;;;;;;;21.03;44.81;100233.94;5094391;28;20298;-75
2022/01/01 02:57:19;;;;;;;;;;;;;;;20.76;45.20;100234.31;5094369;28;20365;-75
2022/01/01 02:59:44;;;;;;;;;;;;;;;20.88;45.09;100229.56;5094178;28;20045;-75
2022/01/01 03:02:10;;;;;;;;;;;;;;;20.76;45.34;100236.28;5094317;28;19922;-75
2022/01/01 03:04:35;;;;;;;;;;;;;;;20.76;45.13;100231.53;5094218;28;20359;-74
2022/01/01 03:07:01;;;;;;;;;;;;;;;20.50;45.79;100235.44;5094167;28;19969;-75
2022/01/01 03:09:34;;;;;;;;;;;;;;;20.42;45.93;100206.06;5094097;28;19922;-75
2022/01/01 03:12:00;;;;;;;;;;;;;;;20.65;45.15;100216.06;5094467;28;20340;-75
2022/01/01 03:14:25;;;;;;;;;;;;;;;20.64;45.40;100204.16;5094293;28;19969;-74
2022/01/01 03:16:51;;;;;;;;;;;;;;;20.53;45.32;100202.53;5094120;28;19920;-74
2022/01/01 03:19:16;;;;;;;;;;;;;;;20.81;44.97;100185.94;5092425;28;19920;-75
2022/01/01 03:21:42;;;;;;;;;;;;;;;20.94;44.50;100145.47;5093958;28;19956;-75
2022/01/01 03:24:08;;;;;;;;;;;;;;;20.83;44.58;100188.31;5093871;28;19922;-75
2022/01/01 03:26:34;;;;;;;;;;;;;;;20.85;44.49;100183.94;5093868;28;19916;-75
2022/01/01 03:28:59;;;;;;;;;;;;;;;20.83;44.33;100153.00;5093559;28;19916;-75
2022/01/01 03:31:25;;;;;;;;;;;;;;;20.92;44.19;100174.81;5093770;28;20385;-74
2022/01/01 03:33:51;;;;;;;;;;;;;;;20.76;44.56;100162.13;5092409;28;20298;-74
2022/01/01 03:36:17;;;;;;;;;;;;;;;20.77;44.49;100140.69;5093684;28;19917;-74
2022/01/01 03:38:42;;;;;;;;;;;;;;;20.87;44.35;100117.72;5093854;28;19918;-75
2022/01/01 03:41:07;;;;;;;;;;;;;;;20.77;44.89;100121.25;5093628;28;20294;-75
2022/01/01 03:43:33;;;;;;;;;;;;;;;21.00;44.52;100079.97;5093559;28;19923;-75
2022/01/01 03:45:58;;;;;;;;;;;;;;;21.10;44.29;100088.72;5093460;28;20378;-75
2022/01/01 03:48:24;;;;;;;;;;;;;;;21.15;43.92;100075.19;5093427;28;19920;-75
2022/01/01 03:50:49;;;;;;;;;;;;;;;21.20;44.29;100074.00;5093464;28;20353;-75
2022/01/01 03:53:16;;;;;;;;;;;;;;;21.34;43.83;100068.44;5093347;28;19920;-75
2022/01/01 03:55:42;;;;;;;;;;;;;;;21.33;43.91;100058.53;5093419;28;19965;-75
2022/01/01 03:58:07;;;;;;;;;;;;;;;21.41;43.74;100073.19;5093232;28;19917;-75
2022/01/01 04:00:33;;;;;;;;;;;;;;;21.47;43.76;100077.94;5093305;28;19916;-75
2022/01/01 04:03:05;;;;;;;;;;;;;;;21.47;43.45;100102.16;5093295;28;19916;-75
2022/01/01 04:05:30;;;;;;;;;;;;;;;21.48;43.51;100123.97;5093178;28;19920;-74
2022/01/01 04:07:56;;;;;;;;;;;;;;;21.43;43.70;100096.59;5093204;28;19923;-75
2022/01/01 04:10:21;;;;;;;;;;;;;;;21.68;43.26;100102.03;5093234;28;19922;-75
2022/01/01 04:12:47;;;;;;;;;;;;;;;21.74;43.27;100094.09;5093155;28;19923;-75
2022/01/01 04:15:12;;;;;;;;;;;;;;;21.64;43.66;100103.28;5093194;28;19923;-75
2022/01/01 04:17:38;;;;;;;;;;;;;;;21.80;43.13;100076.56;5092850;28;20328;-75
2022/01/01 04:20:04;;;;;;;;;;;;;;;21.79;43.45;100074.22;5093125;28;19916;-75
2022/01/01 04:22:29;;;;;;;;;;;;;;;21.66;43.91;100070.28;5093008;28;20365;-75
2022/01/01 04:24:55;;;;;;;;;;;;;;;21.79;43.59;100043.63;5093093;28;19916;-75
2022/01/01 04:27:20;;;;;;;;;;;;;;;21.73;43.70;99989.63;5093048;28;20374;-75
2022/01/01 04:29:46;;;;;;;;;;;;;;;21.95;43.46;100006.97;5093069;28;19923;-75
2022/01/01 04:32:14;;;;;;;;;;;;;;;21.97;43.40;100007.34;5118128;28;19924;-75
2022/01/01 04:34:39;;;;;;;;;;;;;;;22.04;43.23;100016.44;5072674;28;20423;-75
2022/01/01 04:37:11;;;;;;;;;;;;;;;21.84;43.67;100018.19;5072752;28;19946;-75
2022/01/01 04:39:37;;;;;;;;;;;;;;;21.67;44.33;100038.50;5073508;28;20313;-75
2022/01/01 04:42:02;;;;;;;;;;;;;;;21.94;43.95;100031.22;5076678;28;19916;-75
2022/01/01 04:44:28;;;;;;;;;;;;;;;22.00;44.05;100026.81;5092330;28;19917;-75
2022/01/01 04:46:53;;;;;;;;;;;;;;;22.13;43.84;100024.34;5076682;28;19978;-75
2022/01/01 04:49:19;;;;;;;;;;;;;;;22.17;43.81;100019.56;5076589;28;20452;-75
2022/01/01 04:51:44;;;;;;;;;;;;;;;22.41;43.32;99989.94;5076484;28;19916;-75
2022/01/01 04:54:15;;;;;;;;;;;;;;;22.55;43.07;99955.63;5076486;28;20006;-75
2022/01/01 04:56:44;;;;;;;;;;;;;;;22.44;43.47;99950.13;5076472;28;19939;-75
2022/01/01 04:59:10;;;;;;;;;;;;;;;22.35;43.42;99977.66;5076304;28;20406;-75
2022/01/01 05:01:35;;;;;;;;;;;;;;;22.08;44.29;99986.63;5076296;28;19962;-75
2022/01/01 05:04:01;;;;;;;;;;;;;;;22.22;43.73;99968.22;5076279;28;19920;-75
2022/01/01 05:06:26;;;;;;;;;;;;;;;22.27;43.92;100001.19;5076245;28;19953;-75
2022/01/01 05:08:52;;;;;;;;;;;;;;;21.98;44.47;99965.22;5076220;28;19916;-75
2022/01/01 05:11:17;;;;;;;;;;;;;;;22.11;44.34;99958.00;5076151;28;19943;-75
2022/01/01 05:13:43;;;;;;;;;;;;;;;22.14;44.33;99971.09;5076110;28;19916;-75
2022/01/01 05:16:13;;;;;;;;;;;;;;;22.18;44.27;99968.28;5076367;28;19997;-75
2022/01/01 05:18:39;;;;;;;;;;;;;;;22.14;44.63;99939.69;5075769;28;19921;-75
2022/01/01 05:21:04;;;;;;;;;;;;;;;22.49;43.52;99924.63;5075998;28;19925;-75
2022/01/01 05:23:30;;;;;;;;;;;;;;;22.60;43.27;99941.25;5075944;28;20079;-75
2022/01/01 05:25:55;;;;;;;;;;;;;;;22.62;43.09;99922.13;5075939;28;20019;-75
2022/01/01 05:28:20;;;;;;;;;;;;;;;22.45;43.44;99931.47;5091355;28;19950;-75
2022/01/01 05:30:46;;;;;;;;;;;;;;;22.18;44.32;99909.06;5074627;28;19923;-75
2022/01/01 05:33:11;;;;;;;;;;;;;;;22.57;43.50;99928.13;5075337;28;19970;-75
2022/01/01 05:35:37;;;;;;;;;;;;;;;22.53;43.33;99941.31;5075710;28;19967;-75
2022/01/01 05:38:03;;;;;;;;;;;;;;;22.54;43.61;99932.56;5075578;28;19923;-75
2022/01/01 05:40:30;;;;;;;;;;;;;;;22.67;43.30;99947.53;5075656;28;19983;-75
2022/01/01 05:42:55;;;;;;;;;;;;;;;22.53;43.59;99916.28;5075578;28;19912;-75
2022/01/01 05:45:21;;;;;;;;;;;;;;;22.65;43.23;99913.72;5075510;28;20015;-75
2022/01/01 05:47:46;;;;;;;;;;;;;;;22.33;44.00;99935.53;5075547;28;19912;-75
2022/01/01 05:50:12;;;;;;;;;;;;;;;22.66;43.42;99923.66;5074999;28;19916;-75
2022/01/01 05:52:37;;;;;;;;;;;;;;;22.68;43.31;99914.91;5075793;28;20593;-75
2022/01/01 05:55:03;;;;;;;;;;;;;;;22.33;44.02;99932.75;5075695;28;19995;-75
2022/01/01 05:57:28;;;;;;;;;;;;;;;22.67;43.29;99941.97;5075321;28;19917;-74
2022/01/01 05:59:53;;;;;;;;;;;;;;;22.54;43.70;99932.56;5090813;28;19916;-75
2022/01/01 06:02:19;;;;;;;;;;;;;;;22.80;43.42;99938.63;5075229;28;19916;-75
2022/01/01 06:04:44;;;;;;;;;;;;;;;22.86;43.08;99942.56;5075182;28;20271;-75
2022/01/01 06:07:10;;;;;;;;;;;;;;;22.73;43.45;99925.56;5075173;28;19920;-75
2022/01/01 06:09:36;;;;;;;;;;;;;;;22.61;43.48;99914.97;5075184;28;19916;-75
2022/01/01 06:12:01;;;;;;;;;;;;;;;22.43;44.08;99929.06;5075082;28;19923;-75
2022/01/01 06:14:27;;;;;;;;;;;;;;;22.69;43.40;99916.47;5075011;28;20394;-75
2022/01/01 06:16:52;;;;;;;;;;;;;;;22.50;43.80;99936.56;5075027;28;19917;-75
2022/01/01 06:19:17;;;;;;;;;;;;;;;22.85;43.20;99940.97;5074755;28;20492;-75
2022/01/01 06:21:43;;;;;;;;;;;;;;;22.77;43.34;99933.91;5074911;28;19916;-75
2022/01/01 06:24:08;;;;;;;;;;;;;;;22.91;42.80;99920.63;5074831;28;19969;-75
2022/01/01 06:26:34;;;;;;;;;;;;;;;22.96;42.89;99933.28;5074835;28;19923;-75
2022/01/01 06:29:00;;;;;;;;;;;;;;;22.74;43.25;99935.50;5074810;28;20351;-75
2022/01/01 06:31:26;;;;;;;;;;;;;;;22.35;44.17;99938.69;5074640;28;19923;-75
2022/01/01 06:33:51;;;;;;;;;;;;;;;22.71;43.47;99939.13;5074605;28;19916;-75
2022/01/01 06:36:17;;;;;;;;;;;;;;;22.51;43.72;99952.06;5074357;28;20015;-75
2022/01/01 06:38:43;;;;;;;;;;;;;;;22.62;43.44;99934.06;5074427;28;19916;-74
2022/01/01 06:41:08;;;;;;;;;;;;;;;22.81;43.09;99934.63;5074748;28;19916;-75
2022/01/01 06:43:34;;;;;;;;;;;;;;;22.74;43.06;99948.63;5074439;28;19920;-75
2022/01/01 06:45:59;;;;;;;;;;;;;;;22.78;43.08;99930.69;5074238;28;19916;-75
2022/01/01 06:48:25;;;;;;;;;;;;;;;22.98;42.58;99947.63;5074363;28;20346;-75
2022/01/01 06:50:51;;;;;;;;;;;;;;;22.97;42.58;99951.56;5074214;28;19920;-75
2022/01/01 06:53:17;;;;;;;;;;;;;;;22.78;43.06;99947.41;5074225;28;19971;-75
2022/01/01 06:55:42;;;;;;;;;;;;;;;23.04;42.49;99957.06;5074156;28;19944;-75
2022/01/01 06:58:08;;;;;;;;;;;;;;;22.86;42.90;99953.72;5073934;28;19924;-75
2022/01/01 07:00:33;;;;;;;;;;;;;;;22.95;42.71;99976.28;5074064;28;19916;-75
2022/01/01 07:02:59;;;;;;;;;;;;;;;22.75;43.40;99972.50;5073509;28;19912;-75
2022/01/01 07:05:24;;;;;;;;;;;;;;;22.94;42.85;99969.94;5073981;28;20318;-75
2022/01/01 07:07:50;;;;;;;;;;;;;;;22.68;43.60;99976.97;5073900;28;20050;-75
2022/01/01 07:10:15;;;;;;;;;;;;;;;22.69;43.63;99967.38;5073827;28;19913;-75
2022/01/01 07:12:41;;;;;;;;;;;;;;;22.70;43.91;99982.88;5073870;28;20014;-75
2022/01/01 07:15:07;;;;;;;;;;;;;;;22.78;43.68;99977.25;5073843;28;19912;-75
2022/01/01 07:17:32;;;;;;;;;;;;;;;22.97;43.07;99977.47;5073493;28;20370;-75
2022/01/01 07:19:58;;;;;;;;;;;;;;;23.08;42.91;99999.63;5073674;28;19923;-75
2022/01/01 07:22:23;;;;;;;;;;;;;;;23.23;42.86;100005.81;5073705;28;20066;-75
2022/01/01 07:24:51;;;;;;;;;;;;;;;23.19;43.10;100028.13;5073566;28;19916;-75
2022/01/01 07:27:17;;;;;;;;;;;;;;;23.11;43.09;100004.34;5073573;28;19916;-75
2022/01/01 07:29:43;;;;;;;;;;;;;;;22.13;44.48;99958.38;5073490;28;19917;-75
2022/01/01 07:32:08;;;;;;;;;;;;;;;22.43;43.41;99999.44;5073489;28;19917;-75
2022/01/01 07:34:34;;;;;;;;;;;;;;;22.27;43.07;100006.75;5073497;28;19917;-75
2022/01/01 07:36:59;;;;;;;;;;;;;;;22.36;42.42;100026.53;5073369;28;19923;-75
2022/01/01 07:39:25;;;;;;;;;;;;;;;22.38;42.35;100024.16;5073301;28;20006;-75
2022/01/01 07:41:50;;;;;;;;;;;;;;;22.29;42.03;100026.59;5073289;28;19920;-75
2022/01/01 07:44:15;;;;;;;;;;;;;;;22.01;42.16;100025.59;5073563;28;19920;-75
2022/01/01 07:46:41;;;;;;;;;;;;;;;22.13;41.71;100030.69;5073257;28;19916;-75
2022/01/01 07:49:06;;;;;;;;;;;;;;;21.74;42.48;100030.91;5073253;28;19916;-75
2022/01/01 07:51:32;;;;;;;;;;;;;;;21.86;41.84;100022.13;5073203;28;19916;-75
2022/01/01 07:53:57;;;;;;;;;;;;;;;21.59;42.37;100035.75;5073217;28;20435;-75
2022/01/01 07:56:22;;;;;;;;;;;;;;;21.96;41.46;100059.41;5073176;28;19917;-75
2022/01/01 07:58:48;;;;;;;;;;;;;;;21.78;41.69;100048.38;5073083;28;20386;-75
2022/01/01 08:01:13;;;;;;;;;;;;;;;21.62;41.72;100061.19;5072818;28;19917;-75
2022/01/01 08:03:39;;;;;;;;;;;;;;;21.83;41.16;100074.97;5073056;28;19912;-75
2022/01/01 08:06:04;;;;;;;;;;;;;;;21.88;41.05;100074.53;5073074;28;20363;-75
2022/01/01 08:08:30;;;;;;;;;;;;;;;22.02;40.69;100090.38;5073046;28;20362;-75
2022/01/01 08:10:56;;;;;;;;;;;;;;;21.94;40.90;100111.88;5088515;28;19920;-75
2022/01/01 08:13:24;;;;;;;;;;;;;;;21.94;40.85;100113.88;5072843;28;20363;-75
2022/01/01 08:15:50;;;;;;;;;;;;;;;21.73;41.10;100107.19;5072928;28;19912;-75
2022/01/01 08:18:16;;;;;;;;;;;;;;;21.76;40.87;100119.50;5072661;28;19925;-75
2022/01/01 08:20:41;;;;;;;;;;;;;;;21.87;40.49;100125.81;5071592;28;20268;-75
2022/01/01 08:23:07;;;;;;;;;;;;;;;21.74;40.69;100135.78;5072857;28;19917;-75
2022/01/01 08:25:33;;;;;;;;;;;;;;;21.84;40.64;100140.53;5073038;28;19963;-75
2022/01/01 08:27:59;;;;;;;;;;;;;;;21.76;40.79;100141.72;5072906;28;20284;-75
2022/01/01 08:30:24;;;;;;;;;;;;;;;21.44;41.34;100169.63;5072815;28;19916;-74
2022/01/01 08:32:49;;;;;;;;;;;;;;;21.75;40.35;100159.63;5072774;28;19917;-74
2022/01/01 08:35:15;;;;;;;;;;;;;;;21.77;40.55;100168.38;5072807;28;19997;-75
2022/01/01 08:37:41;;;;;;;;;;;;;;;21.66;40.54;100162.03;5072664;28;19927;-74
2022/01/01 08:40:07;;;;;;;;;;;;;;;21.45;40.76;100172.00;5072680;28;19924;-75
2022/01/01 08:42:32;;;;;;;;;;;;;;;21.74;40.41;100181.06;5072757;28;19970;-75
2022/01/01 08:44:58;;;;;;;;;;;;;;;21.51;40.92;100175.97;5072636;28;19916;-75
2022/01/01 08:47:26;;;;;;;;;;;;;;;21.55;40.76;100175.97;5072629;28;19917;-75
2022/01/01 08:49:54;;;;;;;;;;;;;;;21.76;40.30;100175.88;5072589;28;20387;-74
2022/01/01 08:52:19;;;;;;;;;;;;;;;21.72;40.22;100185.44;5105052;28;19970;-75
2022/01/01 08:54:45;;;;;;;;;;;;;;;21.57;40.65;100179.94;5071261;28;19916;-75
2022/01/01 08:57:10;;;;;;;;;;;;;;;21.41;40.60;100184.34;5072540;28;19920;-75
2022/01/01 08:59:36;;;;;;;;;;;;;;;21.49;40.56;100192.25;5072423;28;19924;-75
2022/01/01 09:02:01;;;;;;;;;;;;;;;21.45;40.68;100199.00;5072444;28;19916;-75
2022/01/01 09:04:27;;;;;;;;;;;;;;;21.41;40.81;100203.78;5072496;28;19962;-74
2022/01/01 09:06:52;;;;;;;;;;;;;;;21.40;40.71;100221.66;5072433;28;19916;-75
2022/01/01 09:09:18;;;;;;;;;;;;;;;21.41;40.83;100234.38;5071139;28;19966;-75
2022/01/01 09:11:43;;;;;;;;;;;;;;;21.48;40.38;100237.13;5072727;28;20370;-74
2022/01/01 09:14:09;;;;;;;;;;;;;;;21.48;40.57;100240.72;5072261;28;19923;-75
2022/01/01 09:16:34;;;;;;;;;;;;;;;21.48;40.21;100246.28;5072363;28;19924;-75
2022/01/01 09:19:05;;;;;;;;;;;;;;;21.48;40.21;100237.94;5072060;28;19925;-75
2022/01/01 09:21:30;;;;;;;;;;;;;;;21.26;40.68;100241.88;5072348;28;20255;-74
2022/01/01 09:23:56;;;;;;;;;;;;;;;21.17;40.62;100233.94;5072211;28;19923;-75
2022/01/01 09:26:21;;;;;;;;;;;;;;;21.01;40.85;100256.56;5074116;28;19925;-75
2022/01/01 09:28:47;;;;;;;;;;;;;;;21.16;40.56;100257.38;5075866;28;19917;-75
2022/01/01 09:31:13;;;;;;;;;;;;;;;21.21;40.37;100253.38;5075827;28;19970;-75
2022/01/01 09:33:38;;;;;;;;;;;;;;;21.22;40.13;100258.53;5075692;28;19916;-75
2022/01/01 09:36:04;;;;;;;;;;;;;;;20.82;40.89;100247.81;5075783;28;19916;-75
2022/01/01 09:38:30;;;;;;;;;;;;;;;21.27;40.26;100269.31;5075678;28;19916;-75
2022/01/01 09:40:56;;;;;;;;;;;;;;;21.32;40.19;100274.47;5075654;28;19916;-74
2022/01/01 09:43:22;;;;;;;;;;;;;;;21.46;39.99;100284.78;5075613;28;20003;-75
2022/01/01 09:45:52;;;;;;;;;;;;;;;21.10;40.47;100275.63;5075550;28;19923;-75
2022/01/01 09:48:19;;;;;;;;;;;;;;;21.38;40.04;100280.41;5075560;28;19923;-75
2022/01/01 09:50:47;;;;;;;;;;;;;;;21.25;40.02;100280.00;5075404;28;19916;-75
2022/01/01 09:53:12;;;;;;;;;;;;;;;21.29;39.99;100289.13;5074409;28;19923;-75
2022/01/01 09:55:38;;;;;;;;;;;;;;;21.29;39.97;100289.13;5075337;28;20307;-75
2022/01/01 09:58:03;;;;;;;;;;;;;;;21.57;39.64;100287.56;5075323;28;19921;-75
2022/01/01 10:00:29;;;;;;;;;;;;;;;21.42;39.91;100280.41;5075294;28;20375;-75
2022/01/01 10:02:55;;;;;;;;;;;;;;;21.59;39.66;100302.63;5075289;28;19916;-75
2022/01/01 10:05:21;;;;;;;;;;;;;;;21.30;40.03;100285.16;5075508;28;19920;-75
2022/01/01 10:07:46;;;;;;;;;;;;;;;21.36;40.00;100302.25;5075147;28;20430;-74
2022/01/01 10:10:18;;;;;;;;;;;;;;;21.40;39.85;100302.25;5075139;28;19917;-75
2022/01/01 10:12:45;;;;;;;;;;;;;;;21.56;39.70;100311.78;5075122;28;19916;-75
2022/01/01 10:15:11;;;;;;;;;;;;;;;21.65;39.54;100305.03;5075081;28;19917;-74
2022/01/01 10:17:37;;;;;;;;;;;;;;;21.76;39.48;100305.78;5073723;28;19917;-74
2022/01/01 10:20:03;;;;;;;;;;;;;;;21.72;39.48;100299.44;5073678;28;19927;-74
2022/01/01 10:22:29;;;;;;;;;;;;;;;21.65;39.86;100316.94;5074780;28;20394;-74
2022/01/01 10:27:55;;;;;;;;;;;;;;;21.72;39.50;100305.00;5074869;28;19970;-75
2022/01/01 10:30:29;;;;;;;;;;;;;;;21.78;39.70;100314.53;5074708;28;19927;-75
2022/01/01 10:33:08;;;;;;;;;;;;;;;21.63;40.01;100319.31;5074946;28;19939;-74
2022/01/01 10:35:35;;;;;;;;;;;;;;;21.81;39.53;100313.72;5074636;28;19975;-74
2022/01/01 10:38:04;;;;;;;;;;;;;;;21.81;39.69;100313.72;5074422;28;19967;-75
2022/01/01 10:40:30;;;;;;;;;;;;;;;21.90;39.57;100328.03;5073241;28;19916;-75
2022/01/01 10:42:56;;;;;;;;;;;;;;;21.76;39.75;100322.47;5074484;28;19916;-75
2022/01/01 10:45:29;;;;;;;;;;;;;;;21.87;39.58;100328.81;5074390;28;19917;-75
2022/01/01 10:48:39;;;;;;;;;;;;;;;22.02;39.46;100335.16;5074292;28;19924;-75
2022/01/01 10:51:07;;;;;;;;;;;;;;;21.88;39.75;100338.75;5071736;28;19924;-75
2022/01/01 10:53:33;;;;;;;;;;;;;;;21.83;39.85;100339.16;5074239;28;19917;-75
2022/01/01 10:56:00;;;;;;;;;;;;;;;21.97;39.56;100346.69;5074309;28;20015;-75
2022/01/01 10:58:31;;;;;;;;;;;;;;;22.04;39.17;100341.91;5074061;28;19916;-75
2022/01/01 11:01:01;;;;;;;;;;;;;;;22.03;39.58;100354.22;5074189;28;20007;-75
2022/01/01 11:03:28;;;;;;;;;;;;;;;21.89;39.83;100343.13;5074100;28;19912;-75
2022/01/01 11:06:03;;;;;;;;;;;;;;;22.03;39.65;100343.09;5074001;28;19916;-74
2022/01/01 11:08:29;;;;;;;;;;;;;;;22.12;39.41;100334.38;5074261;28;20320;-75
2022/01/01 11:10:55;;;;;;;;;;;;;;;22.13;39.30;100336.75;5074214;28;19917;-75
2022/01/01 11:13:20;;;;;;;;;;;;;;;22.15;39.50;100344.72;5074118;28;19916;-75
2022/01/01 11:15:45;;;;;;;;;;;;;;;22.19;39.63;100330.78;5073982;28;19924;-75
2022/01/01 11:18:12;;;;;;;;;;;;;;;22.24;39.53;100328.38;5073471;28;19935;-75
2022/01/01 11:20:39;;;;;;;;;;;;;;;22.15;39.68;100323.25;5073818;28;19920;-75
2022/01/01 11:23:07;;;;;;;;;;;;;;;22.07;40.00;100309.72;5073622;28;20371;-75
2022/01/01 11:25:33;;;;;;;;;;;;;;;22.17;39.83;100313.69;5073699;28;19959;-75
2022/01/01 11:27:59;;;;;;;;;;;;;;;22.14;39.76;100323.63;5073623;28;19916;-74
2022/01/01 11:30:28;;;;;;;;;;;;;;;22.10;40.08;100314.50;5073502;28;20490;-74
2022/01/01 11:32:57;;;;;;;;;;;;;;;22.26;39.63;100316.84;5089068;28;19931;-74
2022/01/01 11:35:27;;;;;;;;;;;;;;;22.20;39.92;100313.69;5073448;28;19920;-75
2022/01/01 11:37:56;;;;;;;;;;;;;;;22.14;40.15;100307.75;5072034;28;19917;-75
2022/01/01 11:40:22;;;;;;;;;;;;;;;22.23;39.85;100303.75;5073379;28;19952;-75
2022/01/01 11:42:48;;;;;;;;;;;;;;;22.16;39.82;100307.34;5073295;28;19923;-75
2022/01/01 11:45:33;;;;;;;;;;;;;;;22.35;39.80;100325.56;5072139;28;19916;-75
2022/01/01 11:48:17;;;;;;;;;;;;;;;22.31;39.70;100319.22;5068974;28;19916;-75
2022/01/01 11:50:43;;;;;;;;;;;;;;;22.49;39.49;100331.06;5073107;28;20293;-75
2022/01/01 11:53:26;;;;;;;;;;;;;;;22.33;39.74;100319.59;5073259;28;20007;-75
2022/01/01 11:56:04;;;;;;;;;;;;;;;22.40;39.53;100306.44;5105786;28;19916;-75
2022/01/01 11:58:47;;;;;;;;;;;;;;;22.29;39.56;100318.81;5072999;28;19917;-75
2022/01/01 12:01:14;;;;;;;;;;;;;;;21.98;40.09;100335.16;5073331;28;19986;-75
2022/01/01 12:03:53;;;;;;;;;;;;;;;22.28;39.70;100326.38;5071861;28;20296;-75
2022/01/01 12:06:19;;;;;;;;;;;;;;;22.37;39.27;100340.66;5072953;28;19923;-75
2022/01/01 12:08:46;;;;;;;;;;;;;;;22.42;39.24;100343.03;5073069;28;19923;-74
2022/01/01 12:11:29;;;;;;;;;;;;;;;22.37;39.33;100357.38;5072878;28;19929;-75
2022/01/01 12:13:55;;;;;;;;;;;;;;;22.47;39.10;100364.09;5073005;28;19962;-75
2022/01/01 12:16:21;;;;;;;;;;;;;;;22.46;38.99;100376.44;5072917;28;20015;-75
2022/01/01 12:18:46;;;;;;;;;;;;;;;22.57;39.03;100371.59;5072524;28;20382;-75
2022/01/01 12:21:19;;;;;;;;;;;;;;;22.42;39.01;100368.06;5072957;28;19932;-75
2022/01/01 12:23:46;;;;;;;;;;;;;;;22.32;39.17;100356.97;5072929;28;19916;-75
2022/01/01 12:26:14;;;;;;;;;;;;;;;22.42;39.10;100370.84;5072721;28;19925;-75
2022/01/01 12:28:40;;;;;;;;;;;;;;;22.52;38.90;100346.97;5072714;28;19923;-75
2022/01/01 12:31:07;;;;;;;;;;;;;;;22.47;39.00;100338.25;5072709;28;19916;-74
2022/01/01 12:33:39;;;;;;;;;;;;;;;22.20;39.50;100332.34;5072973;28;19939;-75
2022/01/01 12:36:08;;;;;;;;;;;;;;;22.53;38.86;100333.84;5072731;28;19963;-74
2022/01/01 12:38:34;;;;;;;;;;;;;;;22.58;38.93;100322.28;5072398;28;20370;-75
2022/01/01 12:41:08;;;;;;;;;;;;;;;22.69;38.86;100339.75;5072745;28;20012;-75
2022/01/01 12:43:53;;;;;;;;;;;;;;;22.49;39.01;100333.06;5072689;28;19927;-75